Challenge de la Province du Hainaut

Le Jogging De L'Athénée De Beaumont (10.70 km)

samedi 23 novembre 2019

Vous pouvez trouver Le classement original sur : http://www.challengehainaut.be/
CHALLENGE DE LA PROVINCE DU HAINAUT
LE JOGGING DE L'ATHÉNÉE DE BEAUMONT
DISTANCE 10.69 km
samedi 23 novembre 2019
 
Place dos NOM Equipe Catégorie Pl/cat temps temps/km Vitesse
01:00:00                
1 3109 SCOHIER MIKAEL CITHYTROUILLE SE 1 0:40:11 03:46 15.96
2 3322 ROLDAN ADRIEN 3T SE 2 0:40:38 03:48 15.78
3 528 COPPIN STEVE ESM SE 3 0:40:58 03:50 15.65
4 3355 D'ONOFRIO DAVIDE ACLO V1 1 0:41:51 03:55 15.32
5 3140 ROSITANO YOHAN XX V1 2 0:41:58 03:56 15.28
6 3089 JULLIEN JUSTIN THN LA V SE 4 0:42:07 03:56 15.23
7 3125 HARDY ERIC JAMESON V2 1 0:42:12 03:57 15.20
8 3309 DOMBIER GREGORIAN ARB EH 1 0:42:47 04:00 14.99
9 3331 GRAZZI JIMMY C.C.ESTINNES V1 3 0:42:48 04:00 14.98
10 3139 SORCE LORENZO SPORTIVAMENTE BX. SE 5 0:43:04 04:02 14.89
11 87 BIETTLOT BENJAMIN - SE 6 0:43:09 04:02 14.86
12 3187 ZAUWERS BRYAN CRAC SE 7 0:43:25 04:04 14.77
13 3106 DE VOOGHT YVES FLEURUS ATHL. SE 8 0:43:33 04:04 14.73
14 3362 BLANCHARD POL JCHSH SE 9 0:43:52 04:06 14.62
15 3335 MARTENS CATHERINE O2MAX / CRAC A1 1 0:44:06 04:08 14.54
16 3313 ALLALI JULIEN CRAC EH 2 0:44:15 04:08 14.49
17 3342 MAUDOUX LIONEL JACO SE 10 0:44:45 04:11 14.33
18 3399 LORENT XAVIER BOUFFIOLS SE 11 0:44:52 04:12 14.29
19 3110 DELANNER RENAUD JCHSH V1 4 0:45:17 04:14 14.16
20 523 FITDEVOIE PIERRE OUMONT V2 2 0:45:33 04:16 14.08
21 3369 QUINTELA DANIEL JET V1 5 0:45:35 04:16 14.07
22 761 HARDY MICHAEL LA THURE V1 6 0:45:39 04:16 14.05
23 765 BOECKMANS DAMIEN G.GOBERT RUNNING TEA SE 12 0:46:03 04:18 13.93
24 3311 GUIDO GIANNI FLEURUS ATHL. SE 13 0:46:41 04:22 13.74
25 304 PILLON PHILIPPE FRT BINCHE V2 3 0:46:47 04:23 13.71
26 3150 WARGNIES HUGO RUN FOR FUN CHAPELLE EH 3 0:46:58 04:24 13.65
27 3132 LECLEF JULIEN - SE 14 0:47:06 04:24 13.62
28 3128 FRANCE SEBASTIEN CPMV6 NALINNES SE 15 0:47:07 04:24 13.61
29 220 DEN HOUDIJKER DAVID OEH SE 16 0:47:08 04:25 13.61
30 3135 TRAPANI NICOLAS - SE 17 0:47:21 04:26 13.54
31 3127 PAREE FRANCOIS - SE 18 0:47:21 04:26 13.54
32 35 BEUGNIES DAVID - SE 19 0:47:22 04:26 13.54
33 3180 BOLHANDIA SAID - SE 20 0:47:27 04:26 13.52
34 3324 BOUILLET NICOLAS - V1 7 0:47:31 04:27 13.50
35 3380 LELUBRE BENOIT PSVD V2 4 0:47:35 04:27 13.48
36 3168 BEDORET GEOFFREY HCHSH SE 21 0:47:53 04:29 13.39
37 3107 DELHAYE PATRICK ATCC V2 5 0:47:56 04:29 13.38
38 3097 HAEGEMAN REMY - V1 8 0:47:59 04:29 13.37
39 3130 POELAERT HILDA CPMV6 NALINNES A1 2 0:48:04 04:30 13.34
40 3198 PAULUS PHILIPPE ESM V2 6 0:48:08 04:30 13.32
41 3048 MAINIL MAXIME - SE 22 0:48:21 04:31 13.26
42 3395 LECHAT JEAN ACTE EH 4 0:48:25 04:32 13.25
43 667 MANDERLIER ERIC CRAC V2 7 0:48:47 04:34 13.15
44 772 VANESCOTE INGRID JCHSH / O2 MAX A2 1 0:48:48 04:34 13.14
45 3389 CADO PAUL XYD THE BOSS V2 8 0:48:49 04:34 13.14
46 3405 ROISIN NICOLAS ARB EH 5 0:48:55 04:35 13.11
47 730 VANDRIESSCHE CAROLINE JCHSH A1 3 0:48:56 04:35 13.11
48 3124 GLIBERT XAVIER - SE 23 0:49:01 04:35 13.08
49 3352 CAPORALE JULIEN BOUFFIOLS SE 24 0:49:04 04:35 13.07
50 867 LUST CHRISTOPHE LA THURE V2 9 0:49:09 04:36 13.05
51 3129 MASSCHELEIN ADELINE CPMV6 NALINNES DA 1 0:49:11 04:36 13.04
52 742 THIRION PHILIPPE FRT BINCHE V3 1 0:49:13 04:36 13.03
53 3371 BULTOT SYLVAIN LA THURE SE 25 0:49:15 04:36 13.02
54 3092 CANON THOMAS - SE 26 0:49:18 04:37 13.01
55 3343 MERSCH SEBASTIEN - V1 9 0:49:18 04:37 13.01
56 3367 POURCHAUX ALEXIS - EH 6 0:49:27 04:38 12.97
57 221 YUMUSAK HASAN RSCM V1 10 0:49:29 04:38 12.96
58 3170 GUIOT FABRICE LA THURE V2 10 0:49:55 04:40 12.85
59 3314 WINDAL PATRICIA CABW A2 2 0:49:58 04:40 12.84
60 770 DEKNOP BENOIT CPMV NALINNES V1 11 0:50:06 04:41 12.80
61 3133 POLOME GUY - V2 11 0:50:07 04:41 12.80
62 3189 PIREAU MARGAUX - DA 2 0:50:13 04:42 12.77
63 405 SERAFIN LORENZO FRT BINCHE V1 12 0:50:15 04:42 12.76
64 3332 BOECKX PASCAL LA THURE V1 13 0:50:21 04:43 12.74
65 3384 METRAL GUILLAUME JCHSH JH 1 0:50:22 04:43 12.73
66 3111 CRETON THIBAUT JCHSH SE 27 0:50:25 04:43 12.72
67 470 BELLANTE SALVATORE - V1 14 0:50:29 04:43 12.70
68 282 MATON ISMAEL - SE 28 0:50:34 04:44 12.68
69 404 SAINTES JULIEN FRT BINCHE SE 29 0:50:46 04:45 12.63
70 3046 BAUDEAU HUGO - JH 2 0:51:00 04:46 12.58
71 701 BALDARELLI FABIO CIAO ITALIA V1 15 0:51:12 04:47 12.53
72 3113 BOURGEOIS MICHEL - V1 16 0:51:14 04:48 12.52
73 3351 CIRELLI MARIO GOSP V4 1 0:51:17 04:48 12.51
74 3159 BIERLAIRE NICOLAS - SE 30 0:51:17 04:48 12.51
75 702 D'ADDABO ORONZO CIAO ITALIA V3 2 0:51:18 04:48 12.50
76 3357 SAELMACKERS CHRISTIAN - V3 3 0:51:20 04:48 12.49
77 483 HOYOIS LUC FRT BINCHE V2 12 0:51:21 04:48 12.49
78 767 DALEBROUX VINCENT - V2 13 0:51:24 04:49 12.48
79 447 PIRET PAUL F.C.CASTEAU V4 2 0:51:26 04:49 12.47
80 3361 CHARLOTTEAUX JULIEN LA THURE SE 31 0:51:29 04:49 12.46
81 3396 LECHAT ELISE ACTE ED 1 0:51:35 04:50 12.43
82 675 BODDEN MICHAEL LES TROTTINEURS DE S V1 17 0:51:47 04:51 12.38
83 3172 PIEROPAN CHRISTOPHE - V1 18 0:52:02 04:52 12.33
84 490 CUSCHERA PINO EL BINDE À MICKEY/BJ V1 19 0:52:02 04:52 12.33
85 3385 D'ANGELO AMERINO ZATAC V2 14 0:52:03 04:52 12.32
86 3360 FOURMEAU JULIEN - SE 32 0:52:05 04:52 12.31
87 519 NICOLAI ROBERT - V2 15 0:52:11 04:53 12.29
88 407 MARTORANA ANTONIO AMIS FB V2 16 0:52:12 04:53 12.29
89 417 VAN HONACKER ETIENNE HAC V3 4 0:52:40 04:56 12.18
90 581 WOLNY JEAN-CHRISTOPHE G.GOBERT RUNNING TEA SE 33 0:52:49 04:56 12.14
91 3305 BUTTON LOIC PANPANCLUB SE 34 0:52:54 04:57 12.12
92 3142 DOCK LARRY - V1 20 0:52:55 04:57 12.12
93 3329 ES CHRISTIAN ESM V3 5 0:53:07 04:58 12.07
94 3300 SCOUBEAU OLIVIER HAC V2 17 0:53:13 04:59 12.05
95 3375 NGUYEN-DINH BERNARDO RUNNING COUSOLRE SE 35 0:53:16 04:59 12.04
96 3387 DEROY PHILIPPE ZATAC V4 3 0:53:21 04:59 12.02
97 3155 BONSIGNORE VINCENZO WALIBI V3 6 0:53:22 05:00 12.02
98 3138 LIENARD SEBASTIEN - SE 36 0:53:25 05:00 12.01
99 3330 GRAZZI SOPHIE - A1 4 0:53:26 05:00 12.00
100 68 BAILLY JEAN-PHILIPPE VITALITÉ BINCHE V2 18 0:53:36 05:01 11.97
101 3162 DIVOK BORIS - SE 37 0:53:46 05:02 11.93
102 3347 KADIM MOHAMED GOSP V3 7 0:53:51 05:02 11.91
103 3183 COLON YOHAN TTR SE 38 0:53:54 05:03 11.90
104 3105 RASEMONT DANY - V1 21 0:53:56 05:03 11.89
105 769 DORCIMONT CHANTAL CRAC A2 3 0:53:57 05:03 11.89
106 3093 MATERNE JEAN-PHILIPPE JC HSH V1 22 0:53:59 05:03 11.88
107 531 CHIUSANO MARIA TERESA ESM A2 4 0:54:07 05:04 11.85
108 3103 PURNODE STEPHANIE ACLO A1 5 0:54:11 05:04 11.84
109 3098 BIERWISCH JEAN-MICHEL - V1 23 0:54:17 05:05 11.81
110 431 GUYOT FREDERIC EL BINDE À MICKEY V1 24 0:54:25 05:05 11.79
111 3037 DUBOIS OLIVIER ZATAC V2 19 0:54:35 05:06 11.75
112 781 CATINAT YOURI - SE 39 0:54:43 05:07 11.72
113 3154 CASSANO ROSARIO TROTTINEURS DE SOIGN SE 40 0:54:46 05:07 11.71
114 214 DE VREESE MARC JC ESTINNES V3 8 0:54:47 05:08 11.71
115 766 VRAY VALERIE FRT A2 5 0:54:49 05:08 11.70
116 868 HORLAIT JEAN-LUC FRT V2 20 0:54:50 05:08 11.70
117 3082 DEWANDEL LAURENT ZONARDS LOB. V2 21 0:54:59 05:09 11.66
118 3100 LOISEAU GERY TABARNAK V1 25 0:55:10 05:10 11.63
119 748 VANHOEGAERDEN THIERRY RUNNING'GREZ SE 41 0:55:11 05:10 11.62
120 3364 ANCION JEAN-PHILIPPE ITMC2 V1 26 0:55:15 05:10 11.61
121 117 LEMAIRE JEAN-MARC FLEURUS ATHL. V1 27 0:55:25 05:11 11.57
122 377 NEMETH ALAIN LES TROTTINEURS DE S V3 9 0:55:28 05:11 11.56
123 768 CASSANO RENATO TROTTINEURS DE SOIGN V2 22 0:55:29 05:11 11.56
124 3121 SMAL AURORE - A1 6 0:55:29 05:11 11.56
125 3120 NAVEZ SEBASTIEN MJ CRAZY BIKERS SE 42 0:55:30 05:12 11.56
126 480 DI PISA LORENZO JCPMF FONTAINE SE 43 0:55:37 05:12 11.53
127 3153 WARGNIES FABRICE RUN FOR FUN CHAPELLE V1 28 0:55:47 05:13 11.50
128 3182 LAUWERS PERRINE - DA 3 0:55:53 05:14 11.48
129 3116 WALLEMACQ JEAN-LUC FUR MYEIT V4 4 0:56:01 05:14 11.45
130 612 TRICOT YVES JCPMF FONTAINE V1 29 0:56:17 05:16 11.39
131 805 RIGON DAVID ESM V1 30 0:56:17 05:16 11.39
132 3377 INCONNU - SE 44 0:56:24 05:17 11.37
133 3321 LANTHIER PHILIPPE CCSTC V1 31 0:56:38 05:18 11.32
134 3042 DE PESTEL HERVE VAULX V2 23 0:56:44 05:18 11.30
135 3390 GILSON SEBASTIEN - SE 45 0:56:48 05:19 11.29
136 3337 BAUDUIN DIDIER NAC V2 24 0:56:48 05:19 11.29
137 3045 BAUDEAU JULIEN - V1 32 0:56:54 05:19 11.27
138 3122 KLINKENBERG REGIS ARCH V1 33 0:56:55 05:19 11.27
139 716 COLLARD DELPHINE ACLO DA 4 0:56:57 05:20 11.26
140 494 HOUDART PIERRE JC ESTINNES V1 34 0:56:58 05:20 11.26
141 3398 MONTEGNIES MARYLENE JCHSH A1 7 0:57:02 05:20 11.24
142 3397 LISSENS DANIEL - V5 1 0:57:20 05:22 11.19
143 3163 SCIEUR CHARLOTTE - DA 5 0:57:26 05:22 11.17
144 3365 STIENNE PIERRE ITMC2 V1 35 0:57:26 05:22 11.17
145 3406 VINCART JEROME ARB JH 3 0:57:35 05:23 11.14
146 3112 BOSQUET JOSE - SE 46 0:57:48 05:24 11.10
147 3161 RUYKENS JOHN - SE 47 0:57:52 05:25 11.08
148 3186 LAUWERS STEVE RGC V2 25 0:57:55 05:25 11.07
149 451 WILLOCQ PHILIPPE - V2 26 0:57:58 05:25 11.06
150 538 HEMERYCK MICHEL BJB V2 27 0:58:11 05:27 11.02
151 3334 TASSIN JEAN-MARC - V1 36 0:58:13 05:27 11.02
152 453 DE WULF LUC ESM V3 10 0:58:15 05:27 11.01
153 255 PARISIS MARIE-CHRISTINE ACLO/BJB A4 1 0:58:24 05:28 10.98
154 353 SBRO SALVATOR ESM V4 5 0:58:27 05:28 10.97
155 3407 WARDENIER EMILIE ARB ED 2 0:58:29 05:28 10.97
156 3119 PETIT THIERRY FRT V2 28 0:58:31 05:28 10.96
157 3083 INNOCENTE GINO FRT BINCHE V2 29 0:58:32 05:29 10.96
158 3039 DUBOIS ROMAIN - SE 48 0:58:34 05:29 10.95
159 3167 BEDORET VINCENT HCHSH V2 30 0:58:35 05:29 10.95
160 183 PRAIL CHRISTIAN LES ZONARDS V4 6 0:58:35 05:29 10.95
161 3340 GANTY BENJAMIN ESM V1 37 0:58:43 05:30 10.92
162 3383 METRAL GAELLE JC HSH ED 3 0:58:51 05:30 10.90
163 713 BAYEUL GREGORY - V1 38 0:58:56 05:31 10.88
164 3372 VERSCHEURE OLIVIER - V1 39 0:59:01 05:31 10.87
165 3171 SLOMA CHRISTOPHE - SE 49 0:59:01 05:31 10.87
166 77 ADANT JULIEN SODJUCY SE 50 0:59:06 05:32 10.85
167 130 ROMBAUX DIDIER FRT BINCHE V3 11 0:59:12 05:32 10.83
168 289 DE VREESE SEBASTIEN JC ESTINNES V1 40 0:59:13 05:32 10.83
169 3040 BUTEL LOIC STRATOS RUNNING SE 51 0:59:19 05:33 10.81
170 3047 LINSTER ARNAUD - SE 52 0:59:22 05:33 10.80
171 3349 GIANCOLA PINO JCPMF SENEFFE V1 41 0:59:23 05:33 10.80
172 266 HERPAIN CEDRIC ESM V1 42 0:59:32 05:34 10.77
173 3353 STORMS MATHIEU - SE 53 0:59:35 05:34 10.76
174 3118 MARTENS FRANCOIS JCHSH V1 43 0:59:38 05:35 10.75
175 639 BRUN FABIAN - V1 44 0:59:41 05:35 10.75
176 3376 SCAUT PIERRE JCHSH SE 54 0:59:41 05:35 10.75
177 631 YUMUSAK ALEXANDRE - SE 55 0:59:55 05:36 10.70
178 156 VEKEMAN BERNADETTE AXA TEAM A5 1 0:59:58 05:37 10.69
179 355 GUELTON DAMIEN CIAO ITALIA V1 45 0:59:58 05:37 10.69
180 3359 MEGGIOTTO GEOFFREY - V1 46 0:59:58 05:37 10.69
181 502 DEVILLERS CEDRIC LES TROTTINEURS DE S V1 47 1:00:02 05:37 10.68
182 3188 HERST CELINE - DA 6 1:00:13 05:38 10.65
183 8 STASSIN FRANCIS FLEURUS ATHL. V3 12 1:00:16 05:38 10.64
184 3382 LEMAIRE OLIVIER - V1 48 1:00:29 05:40 10.60
185 3086 THOMAS EDDY MED V1 49 1:00:53 05:42 10.53
186 420 SPITALERI MARIO CIAO ITALIA V3 13 1:00:56 05:42 10.53
187 3373 DELORGE OLIVIER - V1 50 1:01:04 05:43 10.50
188 396 DENIS CHRISTIAN ESM/LES ZONARDS V4 7 1:01:10 05:43 10.48
189 477 GORNIAK ALAIN - V4 8 1:01:13 05:44 10.48
190 3078 LEROY DIDIER - V2 31 1:01:20 05:44 10.46
191 3394 COLLART MARCELLE - A2 6 1:01:28 05:45 10.43
192 94 RENARD ISABELLE ESM/JCPMF FONTAINE A1 8 1:01:37 05:46 10.41
193 113 CHAUVAUX ANNE CIAO ITALIA A1 9 1:01:37 05:46 10.41
194 589 LEROY LUC ZONARDS LOB. V2 32 1:01:44 05:47 10.39
195 464 BOSCO MARCO ACLO V5 2 1:01:47 05:47 10.38
196 3041 JONQUIN RAPHAEL STRATOS RUNNING V1 51 1:01:49 05:47 10.37
197 3354 DESCAMPS JONATHAN - SE 56 1:01:51 05:47 10.37
198 790 DEBRICHY MATHILDE J.C.H/S/H. A1 10 1:01:52 05:47 10.37
199 3108 BUCHET ELISE - A1 11 1:01:57 05:48 10.35
200 3356 VASTARELLA MARCO BVL V2 33 1:02:09 05:49 10.32
201 726 SANTUCCI NATHALIE - A2 7 1:02:12 05:49 10.31
202 499 CASTAGNA MARIO ACG-ADDM V5 3 1:02:17 05:50 10.30
203 256 RARY AIME LES ZONARDS V3 14 1:02:28 05:51 10.27
204 311 KINDERMANS JEAN-PIERRE NAC V2 34 1:02:31 05:51 10.26
205 3101 ROLAND ETIENNE - V2 35 1:02:33 05:51 10.25
206 3090 GUIOT ALEXANDRA STRATOS RUNNING DA 7 1:02:39 05:52 10.24
207 3088 DELECAUT DAVID - SE 57 1:02:53 05:53 10.20
208 3087 GIVOGRE SARAH - A1 12 1:02:53 05:53 10.20
209 613 PIRET ALAIN ZATAC / CRAC V2 36 1:02:56 05:53 10.19
210 3137 HENRY PHILIPPE LA THURE V1 52 1:02:58 05:53 10.19
211 3402 MARCELLE MAUDE ARB JD 1 1:03:06 05:54 10.16
212 3181 VANDENDRIESSCHE NICOLAS - SE 58 1:03:06 05:54 10.16
213 3099 BERNARD HERVE - V2 37 1:03:09 05:54 10.16
214 670 LORENT VINCENT JT BESONRIEUX V2 38 1:03:45 05:58 10.06
215 3388 GARCIA JOSE-LUIS - V2 39 1:03:48 05:58 10.05
216 507 LANCKRIET ALEX ESM V2 40 1:03:48 05:58 10.05
217 551 COUTELLIER MARIE-LOUISE ESM A5 2 1:03:48 05:58 10.05
218 74 BAUDOUX ARNAUD VITALITÉ BINCHE V1 53 1:03:56 05:59 10.03
219 273 LEVEQUE PHILIPPE - V1 54 1:03:57 05:59 10.03
220 546 POCHET JOEL - V3 15 1:04:01 05:59 10.02
221 595 BOUILLON NATACHA J.T.BESONRIEUX A1 13 1:04:23 06:01 9.96
222 3141 SEL MICHEL ACLO V6 1 1:04:32 06:02 9.94
223 3366 DUJARDIN CHRISTOPE ITMC2 V1 55 1:04:38 06:03 9.92
224 275 DURANT ANNE-SOPHIE - A1 14 1:04:40 06:03 9.92
225 3176 ANDRE BRYAN - EH 7 1:04:43 06:03 9.91
226 3156 FAMEREE PIERRE ZATAC V2 41 1:04:49 06:04 9.89
227 3381 NICOLAS LORIS - SE 59 1:04:55 06:04 9.88
228 3310 DUEZ CHRISTOPHE BOUFFIOLS V1 56 1:04:59 06:05 9.87
229 450 SWENNEN GILBERT FOULEES DU PLAISIR V4 9 1:05:01 06:05 9.86
230 3358 DELATTRE ARNAUD J.T.BESONRIEUX V1 57 1:05:06 06:05 9.85
231 3350 EDART SANDRINE JCPMF SENEFFE A1 15 1:05:34 06:08 9.78
232 3091 NAPOLITANO JEAN-BAPTISTE - V2 42 1:05:41 06:09 9.76
233 437 ARTONE NATALINA - A1 16 1:05:49 06:09 9.74
234 3085 GRAWET MARJORIE ZONARDS LOB. A1 17 1:05:55 06:10 9.73
235 3076 RUYKENS FLORENCE LES PAS PRESSÉS A1 18 1:06:05 06:11 9.70
236 3123 MOSTADE CELINE ARCH A1 19 1:06:23 06:13 9.66
237 725 INSALACA GIUSEPPE - V2 43 1:06:32 06:13 9.64
238 791 CASTIEAU SANDRINE ZATAC RAC A2 8 1:06:35 06:14 9.63
239 3160 FEUILLET JOHAN RMT V2 44 1:06:44 06:15 9.61
240 3341 GEERAERTS JOS MYSTÈRE V2 45 1:06:50 06:15 9.60
241 3094 ADANS ALAIN - V2 46 1:06:51 06:15 9.59
242 345 MASSART VICTOR LES BOUFFIOLS V4 10 1:06:53 06:15 9.59
243 3326 MABILLE JOEL JCHSH V2 47 1:07:10 06:17 9.55
244 3095 TENRET HUGUES JC HSH V2 48 1:07:11 06:17 9.55
245 3077 CREMASCHI DAVID - V1 58 1:07:15 06:17 9.54
246 44 MEURRENS YVON LES BOUFFIOLS V4 11 1:07:17 06:18 9.53
247 237 MEULEMANS JULIEN - SE 60 1:07:33 06:19 9.49
248 3408 WICHT HUGO ARB JH 4 1:07:34 06:19 9.49
249 3403 MORBOIS JULIEN ARB JH 5 1:07:35 06:19 9.49
250 3190 MORVAN AURELIEN R2D SE 61 1:07:46 06:20 9.46
251 217 BESANGER RICHARD FRT BINCHE V5 4 1:08:12 06:23 9.40
252 352 PESTIAUX YVES LA THURE V4 12 1:08:16 06:23 9.39
253 362 TAVIER PASCAL J.C.THIMEON V2 49 1:08:28 06:24 9.37
254 3164 BOUILLET ELODIE - A1 20 1:08:53 06:27 9.31
255 3115 HORGNIES MAUD - A1 21 1:09:09 06:28 9.27
256 392 ARTONE BERNARDINO BJB V4 13 1:09:15 06:29 9.26
257 3096 AMANT ORANE - DA 8 1:09:42 06:31 9.20
258 398 THIRION FANFAN ESM/LES ZONARDS A4 2 1:09:51 06:32 9.18
259 489 DEMINNE THIERRY R.C.PEISSANT V2 50 1:10:00 06:33 9.16
260 231 MARTENS PHILIPPE EL BINDE À MICKEY V2 51 1:10:00 06:33 9.16
261 822 FEROLA MARIA ACLO A1 22 1:10:13 06:34 9.13
262 3079 LECOLLIER BELINDA ACLO A1 23 1:10:14 06:34 9.13
263 658 FERAIN THERESE LES TROTTINEURS DE S A4 3 1:10:19 06:35 9.12
264 3184 FORT FANNY - DA 9 1:10:35 06:36 9.09
265 3173 THIRY BENOIT - SE 62 1:10:53 06:38 9.05
266 3165 PREAUX GARY - EH 8 1:11:00 06:39 9.03
267 3174 PIERARD BENEDICTE - A1 24 1:11:04 06:39 9.02
268 3158 COUDOU LAURENCE - A1 25 1:11:21 06:41 8.99
269 3379 LELUBRE SOPHIE PSVD DA 10 1:11:21 06:41 8.99
270 3148 SAUTIERE MURIEL GAZELLE A2 9 1:11:24 06:41 8.98
271 3144 WICHT RUDY ATHLETICO BEAUMONT V1 59 1:11:25 06:41 8.98
272 1624 BAUDUIN ELZO J.C.ESTINNES V2 52 1:11:28 06:41 8.97
273 3344 VANDERMESSE DELPHINE - A2 10 1:11:54 06:44 8.92
274 754 BUTTICE ALFINO - V1 60 1:12:34 06:47 8.84
275 384 FOURDRAIN CELINE - A1 26 1:13:01 06:50 8.78
276 3393 BASSOULET JEAN-CLAUDE J.C.THIMEON V5 5 1:13:23 06:52 8.74
277 3374 CLAUS DIDIER - V2 53 1:13:54 06:55 8.68
278 387 STEENS EMIEL JC ESTINNES V3 16 1:13:55 06:55 8.68
279 153 SCOUBEAU ANNE-MARIE HAC/LA FORESTIÈRE A5 3 1:14:00 06:55 8.67
280 467 DE LUYCK FEMKE - DA 11 1:14:04 06:56 8.66
281 3338 DE LEERNER JEAN-MARIE NAC V4 14 1:14:50 07:00 8.57
282 3339 MAUS MADELEINE NAC A4 4 1:14:50 07:00 8.57
283 3306 HANON JUSTINE PANPANCLUB DA 12 1:16:27 07:09 8.39
284 3074 LECLERCQ OLIVIER JCHSH V1 61 1:16:29 07:09 8.39
285 3401 LERMINIAUX CERISE ARB JD 2 1:16:53 07:12 8.34
286 338 DESCAMPS VERONIQUE JC BRACQ A2 11 1:20:01 07:29 8.01
287 575 SALVIA STEFANO R.T.BRACQUEGNIES V1 62 1:23:24 07:48 7.69
288 3391 ALEXANDRE PASCAL J.C.THIMEON V2 54 1:23:48 07:50 7.65
289 413 MATTIOLI JEAN-MARIE JC BRACQ V3 17 1:24:08 07:52 7.62
290 3320 GOUVERNEUR INGRID - A2 12 1:26:26 08:05 7.42
291 3318 HONNOREZ KATTY - A2 13 1:26:27 08:05 7.42
292 346 TOTIN GEORGES - V6 2 1:27:40 08:12 7.32
                 
Nos dernières videos